OHHVE EFRO-EFRO

Flight info

Callsign OHHVE
Flight time 0h 1m
Altitude 1000
Route TC
Aircraft B412/L-SDFZ/C

Departure

Time 2026-05-07 19:45
Airport Rovaniemi Airport (EFRO)

Arrival

Time 2026-05-07 19:46
Airport Rovaniemi Airport (EFRO)
Time Latitude Longitude Altitude Speed Heading
2026-05-07 19:37 66.55141 25.81337 637 ft 0 kts 126°
2026-05-07 19:41 66.55141 25.81355 637 ft 1 kts 76°
2026-05-07 19:41 66.55135 25.81397 637 ft 2 kts
2026-05-07 19:41 66.55167 25.81435 638 ft 11 kts 76°
2026-05-07 19:42 66.55214 25.81388 640 ft 18 kts 50°
2026-05-07 19:42 66.55392 25.81137 671 ft 40 kts 313°
2026-05-07 19:42 66.55341 25.81313 711 ft 29 kts 30°
2026-05-07 19:42 66.55301 25.81504 637 ft 4 kts 142°
2026-05-07 19:43 66.55300 25.81522 634 ft 0 kts 190°
2026-05-07 19:43 66.55294 25.81516 635 ft 4 kts 272°
2026-05-07 19:43 66.55306 25.81395 632 ft 11 kts 321°
2026-05-07 19:43 66.55395 25.81169 664 ft 24 kts 358°
2026-05-07 19:44 66.55730 25.81584 712 ft 81 kts 41°
2026-05-07 19:44 66.56217 25.82565 904 ft 92 kts 41°
2026-05-07 19:44 66.56714 25.83544 1143 ft 98 kts 35°
2026-05-07 19:44 66.57336 25.84622 1138 ft 113 kts 37°
2026-05-07 19:45 66.57999 25.84516 1252 ft 107 kts 310°
2026-05-07 19:45 66.58202 25.82779 1429 ft 110 kts 280°
2026-05-07 19:45 66.57823 25.81094 1472 ft 122 kts 211°
2026-05-07 19:45 66.56987 25.80264 1336 ft 142 kts 201°
2026-05-07 19:46 66.56008 25.79551 1081 ft 149 kts 193°
2026-05-07 19:46 66.55278 25.80107 961 ft 109 kts 76°
2026-05-07 19:46 66.55617 25.81309 685 ft 66 kts 25°
2026-05-07 19:46 66.55905 25.81860 623 ft 27 kts 36°
2026-05-07 19:47 66.55971 25.82104 705 ft 6 kts 274°
2026-05-07 19:47 66.56034 25.82096 735 ft 42 kts 54°
2026-05-07 19:47 66.56378 25.83040 1103 ft 59 kts 77°
2026-05-07 19:47 66.56415 25.83709 808 ft 51 kts 346°
2026-05-07 19:48 66.56419 25.83872 813 ft 21 kts 276°
2026-05-07 19:48 66.56309 25.83095 754 ft 63 kts 245°
2026-05-07 19:48 66.55988 25.82174 642 ft 66 kts 213°
2026-05-07 19:48 66.55631 25.81445 640 ft 78 kts 216°
2026-05-07 19:49 66.55215 25.81437 716 ft 64 kts 172°
2026-05-07 19:49 66.55128 25.81373 637 ft 0 kts 337°